Weather at Shear Airport

Public forecast

Using degrees Fahrenheit for public forecast. Weather courtesy of forecast.io.

Closest aviation weather report (METAR) to Shear Airport

Closest report is Niagara Falls International Airport, 9.2 nm (17.0 km) S.

2024/07/13 20:53 (retrieved 1 hour ago)

KIAG 132053Z 32007KT 10SM CLR 29/12 A3013 RMK AO2 SLP198 T02940117 58010

Closest aviation forecast (TAF) to Shear Airport

Closest forecast is Niagara Falls International Airport, 9.2 nm (17.0 km) S.

2024/07/13 18:22 (retrieved 4 hours ago)

TAF KIAG 131720Z 1318/1418 VRB03KT P6SM FEW035 FM140000 VRB03KT P6SM SKC FM141500 22008KT P6SM SCT250